Time;durP1;ratioP1;P1;durP2;ratioP2;P2;SDS_P1;SDS_P2;PMS_P1;PMS_P2;Temp;Humidity;BMP_temperature;BMP_pressure;BME280_temperature;BME280_humidity;BME280_pressure;Samples;Min_cycle;Max_cycle;Signal;HPM_P1;HPM_P2
2023/08/12 00:01:06;;;;;;;5.32;3.95;;;;;;;;;;5014094;28;20041;-71
2023/08/12 00:03:31;;;;;;;8.32;3.95;;;;;;;;;;5014055;28;20060;-71
2023/08/12 00:06:01;;;;;;;6.05;3.50;;;;;;;;;;5012978;28;20017;-72
2023/08/12 00:08:26;;;;;;;6.45;4.00;;;;;;;;;;5012350;28;20017;-71
2023/08/12 00:10:52;;;;;;;5.85;4.00;;;;;;;;;;5013776;28;20135;-71
2023/08/12 00:13:17;;;;;;;7.40;4.33;;;;;;;;;;5028542;28;20026;-71
2023/08/12 00:15:45;;;;;;;6.30;3.92;;;;;;;;;;5015594;28;20342;-70
2023/08/12 00:18:10;;;;;;;7.75;4.00;;;;;;;;;;5003815;28;20124;-68
2023/08/12 00:20:37;;;;;;;5.93;4.22;;;;;;;;;;5013762;28;20059;-70
2023/08/12 00:23:06;;;;;;;8.50;4.03;;;;;;;;;;5013242;28;20016;-70
2023/08/12 00:25:31;;;;;;;6.30;3.80;;;;;;;;;;5013786;28;20033;-72
2023/08/12 00:27:59;;;;;;;6.38;4.13;;;;;;;;;;5006806;28;20718;-70
2023/08/12 00:30:24;;;;;;;5.50;3.90;;;;;;;;;;5020614;28;20025;-73
2023/08/12 00:32:52;;;;;;;6.00;4.10;;;;;;;;;;5018017;28;20032;-71
2023/08/12 00:35:17;;;;;;;5.07;3.50;;;;;;;;;;5017581;28;20255;-72
2023/08/12 00:37:44;;;;;;;9.20;3.97;;;;;;;;;;5018777;28;20013;-72
2023/08/12 00:40:10;;;;;;;5.78;3.63;;;;;;;;;;5034607;28;20616;-69
2023/08/12 00:42:35;;;;;;;5.90;4.00;;;;;;;;;;5016798;28;20025;-72
2023/08/12 00:45:03;;;;;;;6.70;4.03;;;;;;;;;;5018046;28;20017;-74
2023/08/12 00:47:31;;;;;;;6.13;4.10;;;;;;;;;;5015352;28;20105;-70
2023/08/12 00:49:59;;;;;;;6.15;4.10;;;;;;;;;;5016583;28;20048;-70
2023/08/12 00:52:26;;;;;;;5.47;3.97;;;;;;;;;;5016317;28;20028;-71
2023/08/12 00:54:54;;;;;;;7.55;4.22;;;;;;;;;;5017663;28;20017;-71
2023/08/12 00:57:19;;;;;;;5.18;3.78;;;;;;;;;;5013495;28;20116;-70
2023/08/12 00:59:47;;;;;;;5.33;3.77;;;;;;;;;;5014104;28;20336;-73
2023/08/12 01:02:12;;;;;;;8.00;4.10;;;;;;;;;;5015075;28;20314;-73
2023/08/12 01:04:38;;;;;;;6.25;4.25;;;;;;;;;;5046497;28;20437;-71
2023/08/12 01:07:05;;;;;;;7.10;4.37;;;;;;;;;;5017455;28;20025;-73
2023/08/12 01:09:33;;;;;;;6.88;4.10;;;;;;;;;;5013464;28;20302;-72
2023/08/12 01:12:17;;;;;;;5.38;3.95;;;;;;;;;;5015178;28;20021;-73
2023/08/12 01:14:45;;;;;;;5.60;3.92;;;;;;;;;;5029768;28;20326;-74
2023/08/12 01:17:11;;;;;;;6.50;4.15;;;;;;;;;;5017992;28;20010;-73
2023/08/12 01:19:37;;;;;;;6.78;4.40;;;;;;;;;;5015045;28;20103;-70
2023/08/12 01:22:03;;;;;;;5.60;3.83;;;;;;;;;;5011523;28;20050;-71
2023/08/12 01:24:35;;;;;;;7.10;3.90;;;;;;;;;;5013774;28;20013;-70
2023/08/12 01:27:03;;;;;;;7.07;4.28;;;;;;;;;;5014293;28;20033;-69
2023/08/12 01:29:28;;;;;;;7.10;3.75;;;;;;;;;;5013467;28;20018;-73
2023/08/12 01:32:14;;;;;;;7.35;3.78;;;;;;;;;;5016998;28;20098;-71
2023/08/12 01:34:42;;;;;;;6.50;4.03;;;;;;;;;;5022508;28;20029;-70
2023/08/12 01:37:08;;;;;;;6.07;3.83;;;;;;;;;;5016499;28;20690;-70
2023/08/12 01:39:35;;;;;;;6.13;4.07;;;;;;;;;;5009533;28;20022;-68
2023/08/12 01:42:00;;;;;;;5.57;3.63;;;;;;;;;;5014999;28;20087;-71
2023/08/12 01:44:26;;;;;;;7.45;3.85;;;;;;;;;;5007194;28;20528;-70
2023/08/12 01:46:53;;;;;;;10.03;4.60;;;;;;;;;;5040167;28;20021;-70
2023/08/12 01:49:20;;;;;;;6.13;4.03;;;;;;;;;;5014244;28;20248;-68
2023/08/12 01:51:45;;;;;;;7.10;4.07;;;;;;;;;;5007117;28;20022;-69
2023/08/12 01:54:10;;;;;;;7.37;4.23;;;;;;;;;;5016407;28;20029;-70
2023/08/12 01:56:36;;;;;;;6.37;4.20;;;;;;;;;;5016594;28;20327;-70
2023/08/12 01:59:01;;;;;;;7.10;4.33;;;;;;;;;;5014402;28;20252;-72
2023/08/12 02:01:28;;;;;;;6.37;4.60;;;;;;;;;;5017111;28;20128;-71
2023/08/12 02:03:54;;;;;;;5.95;4.20;;;;;;;;;;5014458;28;20108;-68
2023/08/12 02:06:19;;;;;;;7.27;4.83;;;;;;;;;;5013379;28;20022;-72
2023/08/12 02:08:44;;;;;;;6.28;4.50;;;;;;;;;;5012236;28;20731;-69
2023/08/12 02:11:12;;;;;;;7.15;4.60;;;;;;;;;;5018236;28;20472;-70
2023/08/12 02:13:37;;;;;;;7.05;4.55;;;;;;;;;;5009930;28;20053;-69
2023/08/12 02:16:03;;;;;;;7.53;4.83;;;;;;;;;;5017958;28;20769;-71
2023/08/12 02:18:28;;;;;;;6.75;4.50;;;;;;;;;;5014410;28;20252;-71
2023/08/12 02:20:53;;;;;;;7.90;4.95;;;;;;;;;;4975636;28;1129946;-71
2023/08/12 02:23:21;;;;;;;6.87;4.70;;;;;;;;;;5017966;28;20044;-70
2023/08/12 02:25:46;;;;;;;7.53;4.78;;;;;;;;;;5017907;28;20252;-70
2023/08/12 02:28:14;;;;;;;6.95;4.78;;;;;;;;;;5012195;28;20566;-73
2023/08/12 02:30:41;;;;;;;8.60;4.88;;;;;;;;;;5042723;28;20088;-71
2023/08/12 02:33:07;;;;;;;7.32;5.18;;;;;;;;;;5010214;28;20658;-70
2023/08/12 02:35:32;;;;;;;8.80;5.13;;;;;;;;;;5017843;28;20029;-73
2023/08/12 02:37:57;;;;;;;7.32;5.00;;;;;;;;;;5013566;28;20484;-71
2023/08/12 02:40:22;;;;;;;7.00;4.87;;;;;;;;;;5016530;28;20789;-74
2023/08/12 02:42:48;;;;;;;6.33;4.77;;;;;;;;;;5013799;28;20263;-72
2023/08/12 02:45:13;;;;;;;8.23;5.20;;;;;;;;;;5014707;28;20695;-72
2023/08/12 02:47:38;;;;;;;9.87;4.97;;;;;;;;;;5014959;28;20048;-71
2023/08/12 02:50:04;;;;;;;8.47;4.60;;;;;;;;;;5014708;28;20022;-71
2023/08/12 02:52:31;;;;;;;7.55;4.75;;;;;;;;;;5011694;28;20046;-70
2023/08/12 02:54:59;;;;;;;7.35;5.22;;;;;;;;;;5013201;28;20013;-70
2023/08/12 02:57:24;;;;;;;9.23;5.30;;;;;;;;;;5012025;28;20572;-71
2023/08/12 02:59:49;;;;;;;7.03;5.00;;;;;;;;;;5014317;28;20040;-71
2023/08/12 03:02:16;;;;;;;10.40;5.40;;;;;;;;;;5005969;28;20435;-71
2023/08/12 03:04:44;;;;;;;7.00;5.28;;;;;;;;;;5011317;28;20388;-70
2023/08/12 03:07:09;;;;;;;8.07;5.40;;;;;;;;;;5016796;28;20010;-70
2023/08/12 03:09:35;;;;;;;7.17;5.27;;;;;;;;;;5015840;28;20029;-72
2023/08/12 03:12:02;;;;;;;8.02;5.40;;;;;;;;;;5014514;28;20834;-70
2023/08/12 03:14:32;;;;;;;9.10;5.25;;;;;;;;;;5018977;28;20028;-70
2023/08/12 03:16:59;;;;;;;6.35;5.30;;;;;;;;;;5014275;28;20124;-72
2023/08/12 03:19:29;;;;;;;7.35;4.97;;;;;;;;;;5017165;28;20362;-71
2023/08/12 03:21:57;;;;;;;6.32;5.00;;;;;;;;;;5002979;28;20049;-71
2023/08/12 03:24:22;;;;;;;6.20;5.13;;;;;;;;;;5024341;28;20888;-70
2023/08/12 03:26:47;;;;;;;7.70;5.25;;;;;;;;;;5009885;28;20093;-71
2023/08/12 03:29:13;;;;;;;6.93;5.03;;;;;;;;;;5015801;28;20091;-69
2023/08/12 03:31:38;;;;;;;6.90;5.40;;;;;;;;;;5009801;28;20060;-70
2023/08/12 03:34:03;;;;;;;7.20;4.90;;;;;;;;;;5013590;28;20275;-73
2023/08/12 03:36:28;;;;;;;7.20;5.30;;;;;;;;;;5012910;28;20025;-70
2023/08/12 03:38:53;;;;;;;7.13;4.93;;;;;;;;;;5017222;28;20267;-71
2023/08/12 03:41:19;;;;;;;7.53;5.33;;;;;;;;;;5005678;28;20025;-70
2023/08/12 03:43:44;;;;;;;7.90;4.93;;;;;;;;;;5013807;28;20026;-72
2023/08/12 03:46:09;;;;;;;7.53;5.00;;;;;;;;;;5040917;28;21071;-70
2023/08/12 03:48:34;;;;;;;7.00;4.80;;;;;;;;;;5012886;28;20658;-70
2023/08/12 03:51:00;;;;;;;7.87;4.90;;;;;;;;;;5013671;28;20029;-69
2023/08/12 03:53:25;;;;;;;6.60;4.70;;;;;;;;;;5009319;28;20064;-70
2023/08/12 03:55:52;;;;;;;6.90;5.10;;;;;;;;;;5011653;28;20895;-70
2023/08/12 03:58:18;;;;;;;8.18;4.82;;;;;;;;;;5012828;28;20342;-69
2023/08/12 04:00:43;;;;;;;7.38;4.47;;;;;;;;;;5019643;28;20132;-71
2023/08/12 04:03:09;;;;;;;6.80;4.63;;;;;;;;;;5011909;28;20055;-70
2023/08/12 04:05:36;;;;;;;7.28;4.63;;;;;;;;;;5014429;28;20018;-71
2023/08/12 04:08:02;;;;;;;7.88;5.20;;;;;;;;;;5013981;28;20033;-72
2023/08/12 04:10:27;;;;;;;6.10;4.90;;;;;;;;;;5031689;28;20044;-72
2023/08/12 04:12:52;;;;;;;6.47;4.80;;;;;;;;;;5024498;28;20032;-73
2023/08/12 04:15:20;;;;;;;8.67;5.00;;;;;;;;;;5003600;28;20029;-71
2023/08/12 04:17:46;;;;;;;7.32;4.50;;;;;;;;;;5020586;28;20361;-74
2023/08/12 04:20:11;;;;;;;8.27;5.03;;;;;;;;;;5010250;28;20024;-71
2023/08/12 04:22:36;;;;;;;9.25;5.03;;;;;;;;;;5008430;28;20108;-70
2023/08/12 04:25:02;;;;;;;6.05;4.65;;;;;;;;;;5014318;28;20032;-73
2023/08/12 04:27:27;;;;;;;6.28;4.85;;;;;;;;;;5004271;28;20029;-70
2023/08/12 04:29:55;;;;;;;6.63;5.27;;;;;;;;;;5031528;28;21314;-69
2023/08/12 04:32:22;;;;;;;6.50;4.80;;;;;;;;;;5010983;28;20959;-70
2023/08/12 04:34:48;;;;;;;6.65;4.97;;;;;;;;;;5026110;28;20448;-69
2023/08/12 04:37:13;;;;;;;6.30;5.13;;;;;;;;;;5014475;28;20025;-71
2023/08/12 04:39:39;;;;;;;7.68;4.85;;;;;;;;;;5011247;28;20685;-71
2023/08/12 04:42:07;;;;;;;7.28;5.05;;;;;;;;;;5012684;28;20022;-70
2023/08/12 04:44:32;;;;;;;8.27;5.85;;;;;;;;;;5013557;28;20537;-69
2023/08/12 04:46:57;;;;;;;7.20;5.33;;;;;;;;;;5014255;28;20062;-70
2023/08/12 04:49:23;;;;;;;8.07;4.97;;;;;;;;;;5016140;28;20615;-70
2023/08/12 04:51:51;;;;;;;6.55;5.10;;;;;;;;;;5010350;28;20108;-70
2023/08/12 04:54:16;;;;;;;8.18;4.88;;;;;;;;;;5012691;28;20018;-70
2023/08/12 04:56:43;;;;;;;7.07;4.80;;;;;;;;;;5014621;28;20424;-69
2023/08/12 04:59:10;;;;;;;7.22;5.63;;;;;;;;;;5015604;28;20880;-69
2023/08/12 05:01:35;;;;;;;8.68;5.43;;;;;;;;;;5013175;28;20040;-70
2023/08/12 05:04:01;;;;;;;6.07;5.07;;;;;;;;;;5014230;28;20022;-69
2023/08/12 05:06:26;;;;;;;7.60;5.67;;;;;;;;;;5010197;28;20048;-72
2023/08/12 05:08:51;;;;;;;8.50;5.00;;;;;;;;;;5014193;28;20324;-69
2023/08/12 05:11:16;;;;;;;7.90;5.60;;;;;;;;;;5014199;28;20536;-72
2023/08/12 05:13:42;;;;;;;7.78;5.55;;;;;;;;;;5018416;28;20032;-72
2023/08/12 05:16:07;;;;;;;8.60;5.70;;;;;;;;;;5015301;28;20768;-71
2023/08/12 05:18:39;;;;;;;6.70;5.00;;;;;;;;;;5022752;28;20017;-70
2023/08/12 05:21:07;;;;;;;7.82;5.30;;;;;;;;;;5009597;28;20049;-72
2023/08/12 05:23:33;;;;;;;9.57;5.20;;;;;;;;;;5011189;28;20071;-72
2023/08/12 05:25:58;;;;;;;10.53;5.30;;;;;;;;;;5035545;28;20516;-70
2023/08/12 05:28:23;;;;;;;7.57;5.03;;;;;;;;;;5010398;28;20026;-70
2023/08/12 05:30:48;;;;;;;7.23;4.80;;;;;;;;;;5013721;28;20029;-71
2023/08/12 05:33:16;;;;;;;7.00;5.40;;;;;;;;;;5012556;28;20037;-71
2023/08/12 05:35:41;;;;;;;7.05;5.40;;;;;;;;;;5014883;28;20025;-70
2023/08/12 05:38:09;;;;;;;6.67;5.00;;;;;;;;;;5016909;28;20753;-73
2023/08/12 05:40:34;;;;;;;7.50;5.05;;;;;;;;;;5012694;28;20010;-70
2023/08/12 05:43:02;;;;;;;7.60;5.03;;;;;;;;;;5019304;28;20025;-71
2023/08/12 05:45:27;;;;;;;7.57;4.88;;;;;;;;;;5033151;28;20054;-71
2023/08/12 05:47:52;;;;;;;5.57;4.63;;;;;;;;;;5020845;28;20044;-69
2023/08/12 05:50:20;;;;;;;6.70;5.00;;;;;;;;;;5018828;28;20033;-71
2023/08/12 05:52:46;;;;;;;7.95;4.80;;;;;;;;;;5011636;28;20294;-68
2023/08/12 05:55:11;;;;;;;7.68;4.95;;;;;;;;;;5017819;28;20021;-69
2023/08/12 05:57:39;;;;;;;7.82;5.07;;;;;;;;;;5011210;28;20022;-70
2023/08/12 06:00:05;;;;;;;6.30;4.65;;;;;;;;;;5016142;28;20074;-68
2023/08/12 06:02:32;;;;;;;7.75;5.32;;;;;;;;;;5018613;28;20044;-70
2023/08/12 06:04:57;;;;;;;8.65;5.50;;;;;;;;;;5010689;28;20673;-71
2023/08/12 06:07:25;;;;;;;6.67;5.10;;;;;;;;;;5011509;28;20067;-72
2023/08/12 06:09:50;;;;;;;8.35;5.53;;;;;;;;;;5011261;28;20719;-69
2023/08/12 06:12:16;;;;;;;8.60;5.22;;;;;;;;;;5006816;28;20029;-72
2023/08/12 06:14:41;;;;;;;7.82;5.40;;;;;;;;;;5014134;28;20047;-73
2023/08/12 06:17:06;;;;;;;7.70;5.85;;;;;;;;;;5015547;28;20018;-71
2023/08/12 06:19:34;;;;;;;8.20;5.82;;;;;;;;;;5009719;28;20022;-72
2023/08/12 06:22:03;;;;;;;7.55;5.30;;;;;;;;;;5013131;28;20053;-70
2023/08/12 06:24:30;;;;;;;7.87;5.83;;;;;;;;;;5006630;28;20041;-70
2023/08/12 06:26:58;;;;;;;9.45;5.70;;;;;;;;;;5014015;28;20018;-72
2023/08/12 06:29:23;;;;;;;7.43;5.95;;;;;;;;;;5016365;28;20071;-69
2023/08/12 06:31:48;;;;;;;7.30;5.83;;;;;;;;;;5019776;28;20037;-72
2023/08/12 06:34:13;;;;;;;7.40;5.90;;;;;;;;;;5005502;28;20248;-71
2023/08/12 06:36:41;;;;;;;8.37;5.40;;;;;;;;;;5009624;28;20025;-72
2023/08/12 06:39:06;;;;;;;8.02;5.80;;;;;;;;;;5028571;28;20275;-69
2023/08/12 06:41:34;;;;;;;9.27;5.60;;;;;;;;;;5013623;28;20100;-72
2023/08/12 06:44:00;;;;;;;9.32;5.20;;;;;;;;;;5017154;28;20013;-70
2023/08/12 06:46:26;;;;;;;7.72;5.30;;;;;;;;;;5010018;28;20026;-69
2023/08/12 06:48:53;;;;;;;7.30;4.97;;;;;;;;;;5016338;28;20611;-70
2023/08/12 06:51:20;;;;;;;8.52;5.20;;;;;;;;;;5013427;28;20279;-70
2023/08/12 06:53:46;;;;;;;6.68;5.57;;;;;;;;;;5014489;28;20075;-70
2023/08/12 06:56:11;;;;;;;7.78;5.40;;;;;;;;;;5018130;28;20029;-69
2023/08/12 06:58:38;;;;;;;10.20;5.50;;;;;;;;;;5018623;28;20048;-71
2023/08/12 07:01:06;;;;;;;7.22;5.32;;;;;;;;;;5006806;28;20493;-70
2023/08/12 07:03:32;;;;;;;6.53;5.07;;;;;;;;;;5017753;28;20028;-72
2023/08/12 07:05:58;;;;;;;6.45;5.22;;;;;;;;;;5010869;28;20013;-73
2023/08/12 07:08:23;;;;;;;7.67;5.17;;;;;;;;;;5012515;28;20041;-72
2023/08/12 07:10:48;;;;;;;7.50;5.50;;;;;;;;;;5044299;28;20302;-70
2023/08/12 07:13:13;;;;;;;8.20;5.30;;;;;;;;;;5012167;28;20070;-71
2023/08/12 07:15:38;;;;;;;7.87;5.17;;;;;;;;;;5014200;28;20021;-70
2023/08/12 07:18:04;;;;;;;8.03;5.40;;;;;;;;;;5008808;28;20722;-69
2023/08/12 07:20:29;;;;;;;9.38;5.88;;;;;;;;;;5004646;28;20285;-71
2023/08/12 07:22:55;;;;;;;9.17;5.40;;;;;;;;;;5008952;28;20794;-71
2023/08/12 07:25:21;;;;;;;7.20;5.60;;;;;;;;;;5005817;28;20288;-68
2023/08/12 07:27:46;;;;;;;8.07;5.50;;;;;;;;;;5022870;28;20503;-69
2023/08/12 07:30:11;;;;;;;7.30;6.00;;;;;;;;;;5007385;28;20248;-72
2023/08/12 07:32:37;;;;;;;9.35;5.88;;;;;;;;;;5016404;28;21137;-72
2023/08/12 07:35:03;;;;;;;6.70;5.07;;;;;;;;;;5011926;28;20615;-71
2023/08/12 07:37:28;;;;;;;7.15;4.82;;;;;;;;;;5011746;28;20021;-71
2023/08/12 07:39:53;;;;;;;8.68;5.22;;;;;;;;;;5008489;28;20010;-69
2023/08/12 07:42:19;;;;;;;7.10;5.10;;;;;;;;;;5019001;28;20115;-70
2023/08/12 07:44:44;;;;;;;6.20;4.55;;;;;;;;;;5005713;28;20076;-67
2023/08/12 07:47:12;;;;;;;12.20;8.90;;;;;;;;;;5016549;28;20048;-68
2023/08/12 07:49:38;;;;;;;11.32;8.05;;;;;;;;;;5008127;28;20021;-69
2023/08/12 07:52:03;;;;;;;7.30;5.53;;;;;;;;;;5009414;28;20032;-73
2023/08/12 07:54:29;;;;;;;7.22;5.50;;;;;;;;;;5045873;28;20022;-71
2023/08/12 07:56:54;;;;;;;7.10;5.63;;;;;;;;;;5011804;28;20549;-72
2023/08/12 07:59:20;;;;;;;8.13;4.90;;;;;;;;;;5003852;28;20240;-70
2023/08/12 08:01:47;;;;;;;6.88;4.68;;;;;;;;;;5011816;28;20635;-69
2023/08/12 08:04:12;;;;;;;7.57;4.90;;;;;;;;;;5016694;28;20061;-70
2023/08/12 08:06:40;;;;;;;6.68;4.80;;;;;;;;;;5009492;28;20088;-69
2023/08/12 08:09:10;;;;;;;6.38;4.57;;;;;;;;;;5016381;28;20537;-70
2023/08/12 08:11:35;;;;;;;6.68;4.35;;;;;;;;;;5016296;28;20025;-70
2023/08/12 08:14:01;;;;;;;5.90;4.32;;;;;;;;;;5010648;28;20492;-69
2023/08/12 08:16:28;;;;;;;7.73;4.70;;;;;;;;;;5000416;28;20025;-70
2023/08/12 08:18:54;;;;;;;7.47;4.90;;;;;;;;;;5014902;28;20013;-68
2023/08/12 08:21:19;;;;;;;8.80;4.67;;;;;;;;;;5004964;28;20058;-69
2023/08/12 08:23:44;;;;;;;7.27;4.10;;;;;;;;;;5009042;28;20026;-68
2023/08/12 08:26:09;;;;;;;7.50;5.07;;;;;;;;;;5011657;28;20791;-71
2023/08/12 08:28:38;;;;;;;10.90;4.17;;;;;;;;;;5005802;28;20025;-70
2023/08/12 08:31:03;;;;;;;7.25;3.95;;;;;;;;;;5011254;28;20276;-69
2023/08/12 08:33:28;;;;;;;5.93;3.90;;;;;;;;;;5003191;28;20026;-70
2023/08/12 08:35:54;;;;;;;8.40;3.70;;;;;;;;;;5011057;28;21037;-69
2023/08/12 08:38:19;;;;;;;7.53;3.38;;;;;;;;;;5017704;28;20252;-72
2023/08/12 08:40:44;;;;;;;6.70;3.38;;;;;;;;;;5010211;28;20026;-71
2023/08/12 08:43:10;;;;;;;7.37;4.03;;;;;;;;;;5004364;28;20657;-67
2023/08/12 08:45:36;;;;;;;7.22;3.42;;;;;;;;;;5010755;28;20824;-70
2023/08/12 08:48:02;;;;;;;7.05;3.55;;;;;;;;;;5040375;28;20021;-70
2023/08/12 08:50:28;;;;;;;6.68;3.47;;;;;;;;;;5010205;28;20041;-71
2023/08/12 08:52:55;;;;;;;8.43;3.67;;;;;;;;;;5032006;28;20033;-68
2023/08/12 08:55:23;;;;;;;5.28;3.60;;;;;;;;;;5017222;28;20029;-70
2023/08/12 08:57:49;;;;;;;6.68;3.90;;;;;;;;;;5033724;28;20067;-69
2023/08/12 09:00:19;;;;;;;6.18;3.60;;;;;;;;;;5020088;28;20583;-71
2023/08/12 09:02:51;;;;;;;7.30;4.18;;;;;;;;;;5014773;28;20077;-70
2023/08/12 09:05:17;;;;;;;6.60;4.00;;;;;;;;;;5009148;28;20022;-69
2023/08/12 09:07:45;;;;;;;6.70;3.83;;;;;;;;;;5021592;28;20025;-69
2023/08/12 09:10:11;;;;;;;6.60;3.55;;;;;;;;;;5011560;28;20477;-69
2023/08/12 09:12:38;;;;;;;5.75;3.55;;;;;;;;;;5015975;28;20025;-70
2023/08/12 09:15:04;;;;;;;6.18;3.28;;;;;;;;;;5016408;28;20018;-69
2023/08/12 09:17:29;;;;;;;6.55;3.55;;;;;;;;;;5017562;28;20017;-69
2023/08/12 09:19:55;;;;;;;9.13;3.20;;;;;;;;;;5007175;28;20025;-69
2023/08/12 09:22:20;;;;;;;6.53;3.60;;;;;;;;;;5019191;28;20052;-70
2023/08/12 09:24:49;;;;;;;7.70;3.60;;;;;;;;;;5017570;28;20025;-70
2023/08/12 09:27:17;;;;;;;6.93;3.53;;;;;;;;;;5020006;28;20029;-70
2023/08/12 09:29:42;;;;;;;7.95;3.90;;;;;;;;;;5017373;28;20732;-72
2023/08/12 09:32:17;;;;;;;5.70;3.70;;;;;;;;;;5016841;28;20137;-69
2023/08/12 09:34:50;;;;;;;5.60;3.70;;;;;;;;;;5014907;28;20049;-70
2023/08/12 09:37:18;;;;;;;9.27;3.72;;;;;;;;;;5010811;28;20144;-70
2023/08/12 09:39:44;;;;;;;6.38;3.92;;;;;;;;;;5038520;28;20040;-71
2023/08/12 09:42:10;;;;;;;6.18;3.85;;;;;;;;;;5011055;28;20026;-71
2023/08/12 09:44:38;;;;;;;9.77;3.80;;;;;;;;;;5010786;28;20013;-71
2023/08/12 09:47:04;;;;;;;7.27;4.10;;;;;;;;;;5020055;28;20025;-70
2023/08/12 09:49:31;;;;;;;6.78;3.60;;;;;;;;;;5008590;28;20276;-68
2023/08/12 09:51:56;;;;;;;6.93;3.33;;;;;;;;;;5003946;28;20030;-69
2023/08/12 09:54:24;;;;;;;7.32;3.92;;;;;;;;;;5023018;28;20349;-70
2023/08/12 09:56:52;;;;;;;7.97;3.92;;;;;;;;;;5012964;28;20025;-71
2023/08/12 09:59:20;;;;;;;5.75;3.60;;;;;;;;;;5007584;28;20104;-71
2023/08/12 10:01:45;;;;;;;9.93;4.32;;;;;;;;;;5013641;28;20052;-71
2023/08/12 10:04:13;;;;;;;6.57;3.75;;;;;;;;;;5017361;28;20025;-68
2023/08/12 10:06:38;;;;;;;6.22;3.90;;;;;;;;;;5017085;28;20041;-69
2023/08/12 10:09:08;;;;;;;5.90;3.95;;;;;;;;;;5030949;28;20053;-71
2023/08/12 10:11:36;;;;;;;6.72;3.97;;;;;;;;;;5010488;28;20579;-71
2023/08/12 10:14:02;;;;;;;6.60;3.78;;;;;;;;;;5011923;28;20935;-70
2023/08/12 10:16:29;;;;;;;5.82;3.60;;;;;;;;;;5010269;28;20061;-69
2023/08/12 10:18:55;;;;;;;8.07;3.60;;;;;;;;;;5018491;28;20038;-68
2023/08/12 10:21:24;;;;;;;6.18;3.55;;;;;;;;;;5014839;28;20398;-69
2023/08/12 10:23:50;;;;;;;9.63;3.70;;;;;;;;;;5007793;28;20022;-68
2023/08/12 10:26:18;;;;;;;7.25;3.60;;;;;;;;;;5018668;28;20079;-69
2023/08/12 10:28:43;;;;;;;6.68;3.60;;;;;;;;;;5007211;28;20026;-69
2023/08/12 10:31:11;;;;;;;7.18;3.67;;;;;;;;;;5012595;28;20039;-70
2023/08/12 10:33:40;;;;;;;6.57;3.72;;;;;;;;;;5032278;28;20018;-71
2023/08/12 10:36:06;;;;;;;6.45;3.90;;;;;;;;;;5015326;28;20650;-68
2023/08/12 10:38:31;;;;;;;6.68;3.30;;;;;;;;;;5008774;28;20078;-70
2023/08/12 10:41:15;;;;;;;6.78;3.45;;;;;;;;;;5016937;28;20167;-70
2023/08/12 10:43:50;;;;;;;6.30;3.38;;;;;;;;;;5021775;28;20469;-70
2023/08/12 10:46:29;;;;;;;6.70;3.85;;;;;;;;;;5046459;28;20033;-69
2023/08/12 10:49:00;;;;;;;7.15;3.58;;;;;;;;;;5008721;28;20029;-71
2023/08/12 10:51:43;;;;;;;6.55;3.80;;;;;;;;;;5020032;28;20424;-70
2023/08/12 10:54:23;;;;;;;7.35;4.03;;;;;;;;;;5003920;28;20028;-70
2023/08/12 10:57:04;;;;;;;6.28;3.67;;;;;;;;;;5010580;28;20033;-71
2023/08/12 10:59:44;;;;;;;6.13;3.50;;;;;;;;;;5032041;28;20063;-70
2023/08/12 11:02:15;;;;;;;6.32;3.58;;;;;;;;;;5005782;28;20022;-69
2023/08/12 11:04:43;;;;;;;6.50;3.55;;;;;;;;;;5002240;28;20014;-69
2023/08/12 11:07:33;;;;;;;8.38;4.10;;;;;;;;;;5009249;28;20018;-67
2023/08/12 11:10:06;;;;;;;6.03;3.85;;;;;;;;;;5039189;28;20499;-72
2023/08/12 11:12:35;;;;;;;6.05;3.58;;;;;;;;;;5014499;28;20044;-69
2023/08/12 11:15:00;;;;;;;;;;;;;;;;;;5008738;28;20101;-71
2023/08/12 11:17:35;;;;;;;6.20;3.60;;;;;;;;;;5011543;28;19909;-68
2023/08/12 11:20:04;;;;;;;8.00;3.88;;;;;;;;;;5002620;28;20267;-70
2023/08/12 11:22:29;;;;;;;6.57;4.07;;;;;;;;;;5017987;28;20416;-70
2023/08/12 11:24:54;;;;;;;6.18;4.63;;;;;;;;;;5014556;28;20101;-68
2023/08/12 11:27:20;;;;;;;7.20;4.20;;;;;;;;;;5013989;28;20010;-70
2023/08/12 11:29:45;;;;;;;8.07;4.60;;;;;;;;;;5015682;28;20511;-71
2023/08/12 11:32:11;;;;;;;5.53;3.70;;;;;;;;;;5010678;28;20120;-71
2023/08/12 11:34:39;;;;;;;6.35;4.00;;;;;;;;;;5014777;28;20025;-71
2023/08/12 11:37:04;;;;;;;6.85;3.67;;;;;;;;;;5018725;28;20056;-70
2023/08/12 11:39:30;;;;;;;6.03;4.05;;;;;;;;;;5010573;28;20029;-67
2023/08/12 11:41:55;;;;;;;6.07;3.80;;;;;;;;;;5022719;28;20045;-67
2023/08/12 11:44:22;;;;;;;7.22;3.63;;;;;;;;;;5015566;28;20052;-68
2023/08/12 11:46:47;;;;;;;6.57;3.75;;;;;;;;;;5009855;28;20026;-65
2023/08/12 11:49:12;;;;;;;5.60;3.93;;;;;;;;;;5013192;28;20028;-65
2023/08/12 11:51:40;;;;;;;7.57;3.80;;;;;;;;;;5001700;28;20045;-66
2023/08/12 11:54:06;;;;;;;6.73;3.83;;;;;;;;;;5003009;28;20034;-67
2023/08/12 11:56:31;;;;;;;6.20;3.97;;;;;;;;;;5036740;28;20013;-67
2023/08/12 11:58:57;;;;;;;6.72;4.00;;;;;;;;;;5012996;28;20351;-66
2023/08/12 12:01:23;;;;;;;8.95;3.80;;;;;;;;;;5010888;28;20508;-67
2023/08/12 12:03:52;;;;;;;6.25;3.80;;;;;;;;;;5010477;28;20131;-67
2023/08/12 12:06:17;;;;;;;7.55;3.92;;;;;;;;;;5030329;28;20014;-64
2023/08/12 12:08:45;;;;;;;6.70;3.50;;;;;;;;;;5012148;28;20017;-66
2023/08/12 12:11:10;;;;;;;7.55;4.15;;;;;;;;;;5016653;28;20689;-67
2023/08/12 12:13:36;;;;;;;5.83;3.87;;;;;;;;;;5010252;28;20084;-66
2023/08/12 12:16:03;;;;;;;6.17;3.63;;;;;;;;;;5011109;28;20018;-66
2023/08/12 12:18:31;;;;;;;6.72;4.03;;;;;;;;;;5016116;28;20343;-65
2023/08/12 12:20:59;;;;;;;7.55;3.75;;;;;;;;;;5015839;28;20168;-66
2023/08/12 12:23:28;;;;;;;5.70;3.67;;;;;;;;;;5030310;28;20017;-65
2023/08/12 12:25:56;;;;;;;;;;;;;;;;;;5022584;28;20043;-67
2023/08/12 12:28:24;;;;;;;7.22;4.07;;;;;;;;;;5015979;28;19939;-67
2023/08/12 12:30:52;;;;;;;8.15;3.97;;;;;;;;;;5021173;28;20026;-67
2023/08/12 12:33:17;;;;;;;5.93;3.60;;;;;;;;;;5018242;28;20546;-67
2023/08/12 12:35:45;;;;;;;5.77;3.67;;;;;;;;;;5022114;28;20013;-66
2023/08/12 12:38:11;;;;;;;5.20;3.50;;;;;;;;;;5010583;28;20044;-66
2023/08/12 12:40:38;;;;;;;6.18;3.92;;;;;;;;;;5013249;28;20472;-67
2023/08/12 12:43:04;;;;;;;5.30;3.55;;;;;;;;;;5009762;28;20049;-69
2023/08/12 12:45:29;;;;;;;6.50;4.32;;;;;;;;;;5006942;28;20302;-70
2023/08/12 12:47:54;;;;;;;6.35;3.80;;;;;;;;;;5013848;28;20108;-69
2023/08/12 12:50:19;;;;;;;7.27;4.57;;;;;;;;;;5020584;28;20491;-68
2023/08/12 12:52:45;;;;;;;6.97;3.63;;;;;;;;;;5018648;28;20106;-69
2023/08/12 12:55:10;;;;;;;7.60;4.23;;;;;;;;;;5015522;28;20026;-68
2023/08/12 12:57:35;;;;;;;6.50;4.20;;;;;;;;;;5007174;28;20591;-68
2023/08/12 13:00:04;;;;;;;5.63;3.70;;;;;;;;;;5013137;28;20973;-69
2023/08/12 13:02:30;;;;;;;6.63;3.80;;;;;;;;;;5018910;28;20037;-69
2023/08/12 13:04:55;;;;;;;6.55;3.67;;;;;;;;;;5016879;28;20326;-70
2023/08/12 13:07:21;;;;;;;6.90;3.90;;;;;;;;;;5014002;28;20116;-70
2023/08/12 13:09:46;;;;;;;11.47;4.00;;;;;;;;;;5014495;28;20029;-71
2023/08/12 13:12:11;;;;;;;6.03;3.42;;;;;;;;;;5016806;28;20375;-70
2023/08/12 13:14:36;;;;;;;5.80;3.30;;;;;;;;;;5011929;28;20101;-70
2023/08/12 13:17:02;;;;;;;6.93;3.60;;;;;;;;;;5049050;28;20025;-71
2023/08/12 13:19:27;;;;;;;7.28;3.50;;;;;;;;;;5020278;28;20531;-71
2023/08/12 13:21:53;;;;;;;6.17;3.47;;;;;;;;;;5008768;28;20687;-70
2023/08/12 13:24:20;;;;;;;6.30;3.80;;;;;;;;;;5011883;28;20389;-70
2023/08/12 13:26:46;;;;;;;6.32;3.70;;;;;;;;;;5012632;28;20047;-69
2023/08/12 13:29:11;;;;;;;7.50;3.50;;;;;;;;;;5030647;28;20570;-70
2023/08/12 13:31:39;;;;;;;5.67;3.40;;;;;;;;;;5015351;28;20021;-70
2023/08/12 13:34:05;;;;;;;7.45;3.40;;;;;;;;;;5011928;28;20032;-71
2023/08/12 13:36:30;;;;;;;7.47;4.10;;;;;;;;;;5004436;28;20013;-72
2023/08/12 13:38:55;;;;;;;5.75;3.47;;;;;;;;;;5011426;28;20017;-71
2023/08/12 13:41:23;;;;;;;5.90;3.85;;;;;;;;;;5017311;28;20017;-69
2023/08/12 13:43:53;;;;;;;6.97;3.63;;;;;;;;;;5028175;28;20025;-69
2023/08/12 13:46:18;;;;;;;6.97;3.72;;;;;;;;;;5009530;28;20040;-68
2023/08/12 13:48:43;;;;;;;6.00;3.37;;;;;;;;;;5037302;28;20021;-70
2023/08/12 13:51:09;;;;;;;5.13;3.60;;;;;;;;;;5017946;28;20554;-70
2023/08/12 13:53:34;;;;;;;6.03;3.55;;;;;;;;;;5014099;28;20028;-71
2023/08/12 13:55:59;;;;;;;5.63;3.63;;;;;;;;;;5009283;28;20025;-72
2023/08/12 13:58:27;;;;;;;7.70;3.73;;;;;;;;;;5020367;28;20084;-69
2023/08/12 14:00:52;;;;;;;5.30;3.30;;;;;;;;;;5017864;28;20026;-69
2023/08/12 14:03:20;;;;;;;6.30;3.57;;;;;;;;;;5009808;28;20040;-70
2023/08/12 14:05:45;;;;;;;5.88;3.90;;;;;;;;;;5014879;28;20396;-67
2023/08/12 14:08:10;;;;;;;5.73;3.47;;;;;;;;;;5012997;28;20018;-70
2023/08/12 14:10:45;;;;;;;6.97;3.77;;;;;;;;;;5016527;28;20021;-70
2023/08/12 14:13:12;;;;;;;6.85;3.70;;;;;;;;;;5019021;28;20120;-72
2023/08/12 14:15:38;;;;;;;5.65;3.50;;;;;;;;;;5017342;28;20039;-70
2023/08/12 14:18:03;;;;;;;5.17;3.33;;;;;;;;;;5014869;28;20465;-70
2023/08/12 14:20:31;;;;;;;6.88;3.67;;;;;;;;;;5014369;28;20110;-71
2023/08/12 14:22:59;;;;;;;5.30;3.42;;;;;;;;;;5013154;28;20090;-71
2023/08/12 14:25:26;;;;;;;6.88;3.85;;;;;;;;;;5013047;28;20457;-71
2023/08/12 14:27:51;;;;;;;5.88;3.72;;;;;;;;;;5013374;28;20014;-69
2023/08/12 14:30:18;;;;;;;8.67;3.90;;;;;;;;;;5013893;28;20021;-69
2023/08/12 14:32:43;;;;;;;6.45;3.88;;;;;;;;;;5014425;28;20029;-69
2023/08/12 14:35:09;;;;;;;6.87;3.93;;;;;;;;;;5012961;28;20024;-69
2023/08/12 14:37:34;;;;;;;7.97;3.92;;;;;;;;;;5017881;28;20023;-71
2023/08/12 14:40:02;;;;;;;7.03;3.57;;;;;;;;;;5015617;28;20068;-71